createdAt,value
2019-02-18T00:01:01.821Z,79.53
2019-02-18T00:03:50.428Z,90.53
2019-02-18T00:06:41.329Z,85.57
2019-02-18T00:09:31.426Z,91.37
2019-02-18T00:12:21.732Z,89.97
2019-02-18T00:15:11.130Z,96.60
2019-02-18T00:17:59.927Z,87.83
2019-02-18T00:20:48.924Z,92.27
2019-02-18T00:23:37.927Z,86.70
2019-02-18T00:26:29.421Z,87.90
2019-02-18T00:29:19.298Z,84.70
2019-02-18T00:32:10.943Z,72.50
2019-02-18T00:35:02.496Z,72.43
2019-02-18T00:37:51.713Z,62.77
2019-02-18T00:40:41.002Z,56.23
2019-02-18T00:43:31.491Z,62.57
2019-02-18T00:46:21.156Z,64.63
2019-02-18T00:49:10.429Z,70.20
2019-02-18T00:52:00.134Z,63.20
2019-02-18T00:54:49.314Z,69.60
2019-02-18T00:57:37.750Z,63.10
2019-02-18T01:00:27.610Z,61.30
2019-02-18T01:03:16.796Z,69.33
2019-02-18T01:06:08.349Z,62.60
2019-02-18T01:08:57.687Z,62.10
2019-02-18T01:11:46.833Z,63.27
2019-02-18T01:14:37.222Z,64.30
2019-02-18T01:17:29.367Z,58.87
2019-02-18T01:20:19.169Z,58.63
2019-02-18T01:23:08.303Z,69.10
2019-02-18T01:25:57.315Z,71.33
2019-02-18T01:28:47.057Z,60.70
2019-02-18T01:31:36.237Z,67.37
2019-02-18T01:34:25.016Z,61.40
2019-02-18T01:37:13.456Z,61.07
2019-02-18T01:40:02.162Z,61.03
2019-02-18T01:42:50.725Z,57.87
2019-02-18T01:45:40.361Z,61.50
2019-02-18T01:48:30.372Z,62.33
2019-02-18T01:51:19.992Z,58.60
2019-02-18T01:54:09.296Z,61.63
2019-02-18T01:56:58.091Z,61.30
2019-02-18T01:59:47.505Z,61.93
2019-02-18T02:02:38.411Z,69.50
2019-02-18T02:05:28.712Z,63.87
2019-02-18T02:08:17.299Z,66.27
2019-02-18T02:11:06.793Z,64.17
2019-02-18T02:13:59.135Z,65.03
2019-02-18T02:16:47.705Z,59.70
2019-02-18T02:19:37.034Z,69.67
2019-02-18T02:22:26.352Z,61.37
2019-02-18T02:25:15.786Z,62.13
2019-02-18T02:28:04.841Z,58.53
2019-02-18T02:30:54.158Z,64.10
2019-02-18T02:33:43.176Z,61.20
2019-02-18T02:36:32.323Z,63.17
2019-02-18T02:39:22.679Z,63.87
2019-02-18T02:42:11.721Z,65.27
2019-02-18T02:44:59.998Z,64.37
2019-02-18T02:47:49.320Z,59.13
2019-02-18T02:50:41.274Z,60.03
2019-02-18T02:53:30.088Z,67.17
2019-02-18T02:56:21.677Z,64.50
2019-02-18T02:59:10.279Z,61.00
2019-02-18T03:02:00.502Z,69.63
2019-02-18T03:04:49.671Z,61.47
2019-02-18T03:07:38.682Z,62.80
2019-02-18T03:10:28.660Z,57.07
2019-02-18T03:13:17.414Z,58.30
2019-02-18T03:16:07.123Z,69.97
2019-02-18T03:18:57.836Z,66.63
2019-02-18T03:21:49.367Z,70.40
2019-02-18T03:24:40.259Z,60.83
2019-02-18T03:27:30.345Z,70.87
2019-02-18T03:31:03.698Z,63.53
2019-02-18T03:33:59.507Z,58.70
2019-02-18T03:36:47.988Z,61.30
2019-02-18T03:39:36.653Z,55.70
2019-02-18T03:42:25.604Z,54.33
2019-02-18T03:45:14.224Z,58.60
2019-02-18T03:48:03.275Z,62.17
2019-02-18T03:50:53.388Z,61.50
2019-02-18T03:53:42.640Z,55.80
2019-02-18T03:56:31.738Z,68.23
2019-02-18T03:59:21.015Z,62.73
2019-02-18T04:02:10.255Z,69.00
2019-02-18T04:04:59.453Z,74.70
2019-02-18T04:07:48.817Z,72.40
2019-02-18T04:10:38.360Z,75.37
2019-02-18T04:13:29.477Z,76.90
2019-02-18T04:16:18.488Z,76.37
2019-02-18T04:19:07.541Z,77.97
2019-02-18T04:21:56.489Z,73.90
2019-02-18T04:24:45.681Z,79.53
2019-02-18T04:27:35.190Z,74.40
2019-02-18T04:30:24.461Z,77.07
2019-02-18T04:33:13.522Z,80.13
2019-02-18T04:36:02.549Z,75.50
2019-02-18T04:38:54.096Z,80.63
2019-02-18T04:41:41.445Z,74.30
2019-02-18T04:44:31.011Z,61.10
2019-02-18T04:47:23.353Z,58.10
2019-02-18T04:50:12.603Z,64.43
2019-02-18T04:53:02.417Z,58.17
2019-02-18T04:55:51.458Z,54.00
2019-02-18T04:58:40.924Z,60.77
2019-02-18T05:01:30.081Z,55.10
2019-02-18T05:04:19.420Z,61.80
2019-02-18T05:07:08.989Z,58.70
2019-02-18T05:09:57.936Z,62.30
2019-02-18T05:12:47.357Z,62.93
2019-02-18T05:15:36.290Z,60.93
2019-02-18T05:18:25.283Z,63.00
2019-02-18T05:21:14.166Z,71.40
2019-02-18T05:24:03.560Z,58.07
2019-02-18T05:26:52.831Z,67.17
2019-02-18T05:29:42.301Z,66.70
2019-02-18T05:32:31.178Z,71.57
2019-02-18T05:35:20.172Z,72.70
2019-02-18T05:38:09.802Z,62.90
2019-02-18T05:40:58.803Z,60.40
2019-02-18T05:43:47.653Z,64.17
2019-02-18T05:46:36.150Z,66.97
2019-02-18T05:49:24.719Z,74.93
2019-02-18T05:52:14.181Z,72.23
2019-02-18T05:55:03.556Z,71.13
2019-02-18T05:57:53.138Z,58.80
2019-02-18T06:00:42.361Z,67.30
2019-02-18T06:03:31.623Z,71.13
2019-02-18T06:06:20.155Z,68.10
2019-02-18T06:09:09.127Z,63.83
2019-02-18T06:11:58.628Z,69.27
2019-02-18T06:14:47.399Z,69.40
2019-02-18T06:17:37.847Z,65.93
2019-02-18T06:20:30.234Z,65.50
2019-02-18T06:23:19.965Z,62.20
2019-02-18T06:26:08.985Z,65.87
2019-02-18T06:28:58.452Z,68.27
2019-02-18T06:31:48.100Z,66.23
2019-02-18T06:34:39.573Z,67.97
2019-02-18T06:37:29.691Z,71.13
2019-02-18T06:40:18.591Z,70.27
2019-02-18T06:43:11.778Z,70.37
2019-02-18T06:46:09.296Z,82.00
2019-02-18T06:49:20.566Z,89.77
2019-02-18T06:52:09.181Z,80.30
2019-02-18T06:54:58.833Z,73.77
2019-02-18T06:58:24.758Z,82.80
2019-02-18T07:01:38.296Z,80.50
2019-02-18T07:04:57.665Z,84.53
2019-02-18T07:08:14.408Z,74.53
2019-02-18T07:11:24.602Z,77.37
2019-02-18T07:14:13.118Z,77.70
2019-02-18T07:17:01.722Z,76.57
2019-02-18T07:19:50.683Z,78.33
2019-02-18T07:22:39.936Z,77.47
2019-02-18T07:25:30.954Z,86.50
2019-02-18T07:28:20.306Z,75.77
2019-02-18T07:31:10.184Z,79.57
2019-02-18T07:33:59.807Z,78.43
2019-02-18T07:36:49.289Z,87.13
2019-02-18T07:39:38.334Z,78.47
2019-02-18T07:42:28.526Z,83.20
2019-02-18T07:45:17.613Z,80.93
2019-02-18T07:48:06.847Z,74.40
2019-02-18T07:50:55.720Z,82.40
2019-02-18T07:53:44.382Z,88.80
2019-02-18T07:56:33.655Z,85.23
2019-02-18T07:59:22.599Z,84.43
2019-02-18T08:02:11.314Z,82.47
2019-02-18T08:05:02.623Z,88.40
2019-02-18T08:07:51.076Z,90.23
2019-02-18T08:10:40.308Z,86.50
2019-02-18T08:13:30.635Z,104.83
2019-02-18T08:16:19.476Z,100.80
2019-02-18T08:19:08.680Z,94.53
2019-02-18T08:21:58.007Z,96.27
2019-02-18T08:24:47.449Z,98.93
2019-02-18T08:27:35.968Z,96.20
2019-02-18T08:30:25.032Z,102.97
2019-02-18T08:33:14.127Z,107.57
2019-02-18T08:36:03.470Z,114.87
2019-02-18T08:38:52.632Z,100.47
2019-02-18T08:41:41.694Z,106.10
2019-02-18T08:44:31.489Z,114.07
2019-02-18T08:47:21.439Z,97.73
2019-02-18T08:50:11.540Z,101.17
2019-02-18T08:53:02.507Z,104.60
2019-02-18T08:55:51.411Z,99.40
2019-02-18T08:58:40.567Z,97.83
2019-02-18T09:01:29.683Z,110.30
2019-02-18T09:04:18.726Z,107.13
2019-02-18T09:07:07.714Z,115.83
2019-02-18T09:09:56.771Z,108.47
2019-02-18T09:12:54.501Z,105.10
2019-02-18T09:15:43.555Z,96.33
2019-02-18T09:18:32.690Z,93.70
2019-02-18T09:21:21.893Z,105.23
2019-02-18T09:24:19.092Z,98.20
2019-02-18T09:27:08.054Z,95.70
2019-02-18T09:29:56.717Z,100.50
2019-02-18T09:32:46.049Z,102.80
2019-02-18T09:35:35.139Z,108.57
2019-02-18T09:38:25.517Z,101.13
2019-02-18T09:41:14.242Z,96.00
2019-02-18T09:44:03.327Z,112.43
2019-02-18T09:46:52.481Z,103.70
2019-02-18T09:49:41.621Z,102.63
2019-02-18T09:52:31.377Z,107.07
2019-02-18T09:55:20.323Z,101.60
2019-02-18T09:58:09.673Z,114.57
2019-02-18T10:00:58.682Z,102.73
2019-02-18T10:03:48.141Z,107.37
2019-02-18T10:06:37.099Z,94.40
2019-02-18T10:09:26.939Z,100.40
2019-02-18T10:12:18.399Z,97.00
2019-02-18T10:15:09.202Z,102.20
2019-02-18T10:17:57.909Z,98.43
2019-02-18T10:20:47.202Z,92.43
2019-02-18T10:23:36.416Z,105.03
2019-02-18T10:26:25.478Z,102.90
2019-02-18T10:29:14.472Z,92.17
2019-02-18T10:32:03.792Z,97.07
2019-02-18T10:34:53.776Z,96.87
2019-02-18T10:37:43.507Z,96.33
2019-02-18T10:40:32.714Z,89.63
2019-02-18T10:43:30.159Z,86.67
2019-02-18T10:46:13.214Z,90.80
2019-02-18T10:49:02.818Z,86.17
2019-02-18T10:51:51.805Z,92.07
2019-02-18T10:54:41.232Z,102.67
2019-02-18T10:57:31.799Z,89.30
2019-02-18T11:00:21.171Z,87.00
2019-02-18T11:03:10.516Z,90.53
2019-02-18T11:06:00.353Z,91.07
2019-02-18T11:08:49.735Z,92.10
2019-02-18T11:11:38.844Z,95.30
2019-02-18T11:14:29.544Z,91.20
2019-02-18T11:17:19.174Z,88.10
2019-02-18T11:20:09.134Z,86.37
2019-02-18T11:22:58.389Z,80.80
2019-02-18T11:25:47.667Z,89.63
2019-02-18T11:28:36.883Z,89.50
2019-02-18T11:31:25.532Z,78.73
2019-02-18T11:34:14.473Z,83.87
2019-02-18T11:37:03.075Z,75.00
2019-02-18T11:39:52.362Z,82.67
2019-02-18T11:42:41.835Z,80.80
2019-02-18T11:45:31.441Z,74.37
2019-02-18T11:48:20.684Z,86.30
2019-02-18T11:51:09.667Z,87.47
2019-02-18T11:53:58.961Z,86.17
2019-02-18T11:56:47.630Z,81.40
2019-02-18T11:59:36.607Z,81.80
2019-02-18T12:02:25.721Z,81.20
2019-02-18T12:05:15.151Z,81.10
2019-02-18T12:08:04.264Z,80.13
2019-02-18T12:10:53.348Z,87.73
2019-02-18T12:13:42.579Z,73.13
2019-02-18T12:16:31.911Z,78.87
2019-02-18T12:19:21.695Z,72.83
2019-02-18T12:22:12.061Z,87.27
2019-02-18T12:25:00.905Z,71.60
2019-02-18T12:27:50.111Z,75.67
2019-02-18T12:30:40.104Z,73.67
2019-02-18T12:33:29.784Z,70.03
2019-02-18T12:36:20.276Z,74.07
2019-02-18T12:39:13.394Z,70.47
2019-02-18T12:42:02.384Z,74.03
2019-02-18T12:44:50.974Z,75.53
2019-02-18T12:47:40.138Z,70.40
2019-02-18T12:50:31.967Z,74.23
2019-02-18T12:53:21.093Z,78.03
2019-02-18T12:56:10.619Z,78.30
2019-02-18T12:59:00.628Z,71.83
2019-02-18T13:01:50.041Z,74.10
2019-02-18T13:04:38.729Z,76.27
2019-02-18T13:07:28.860Z,80.07
2019-02-18T13:10:20.963Z,79.20
2019-02-18T13:13:09.966Z,81.83
2019-02-18T13:15:58.800Z,89.23
2019-02-18T13:18:47.487Z,81.33
2019-02-18T13:21:36.748Z,74.27
2019-02-18T13:24:25.839Z,76.93
2019-02-18T13:27:14.672Z,76.13
2019-02-18T13:30:03.644Z,75.53
2019-02-18T13:32:52.216Z,75.13
2019-02-18T13:35:40.925Z,80.07
2019-02-18T13:38:31.987Z,76.90
2019-02-18T13:41:23.440Z,74.23
2019-02-18T13:44:12.068Z,74.27
2019-02-18T13:47:01.279Z,69.63
2019-02-18T13:49:50.768Z,73.37
2019-02-18T13:52:39.816Z,69.20
2019-02-18T13:55:30.863Z,69.90
2019-02-18T13:58:20.021Z,68.63
2019-02-18T14:01:09.359Z,69.73
2019-02-18T14:03:58.732Z,61.33
2019-02-18T14:06:47.817Z,62.30
2019-02-18T14:09:37.007Z,68.57
2019-02-18T14:12:26.222Z,72.83
2019-02-18T14:15:16.645Z,65.17
2019-02-18T14:18:05.727Z,71.37
2019-02-18T14:21:17.746Z,69.87
2019-02-18T14:24:06.420Z,70.43
2019-02-18T14:26:55.830Z,63.17
2019-02-18T14:29:45.359Z,60.20
2019-02-18T14:32:34.834Z,62.57
2019-02-18T14:35:24.297Z,61.90
2019-02-18T14:38:13.997Z,60.73
2019-02-18T14:41:03.445Z,60.27
2019-02-18T14:43:52.715Z,72.67
2019-02-18T14:46:41.895Z,62.40
2019-02-18T14:49:38.109Z,63.67
2019-02-18T14:52:29.351Z,61.03
2019-02-18T14:55:18.605Z,71.67
2019-02-18T14:58:08.518Z,61.20
2019-02-18T15:00:57.547Z,67.77
2019-02-18T15:03:46.465Z,65.93
2019-02-18T15:06:36.082Z,72.10
2019-02-18T15:09:26.439Z,70.40
2019-02-18T15:12:15.784Z,62.60
2019-02-18T15:15:05.716Z,64.13
2019-02-18T15:17:55.065Z,64.17
2019-02-18T15:20:44.760Z,73.43
2019-02-18T15:23:33.872Z,68.17
2019-02-18T15:26:24.491Z,63.10
2019-02-18T15:29:13.889Z,67.30
2019-02-18T15:32:03.081Z,69.03
2019-02-18T15:34:52.602Z,67.53
2019-02-18T15:37:41.854Z,68.80
2019-02-18T15:40:32.567Z,68.57
2019-02-18T15:43:21.924Z,68.80
2019-02-18T15:46:11.341Z,70.00
2019-02-18T15:49:00.638Z,69.33
2019-02-18T15:51:49.644Z,71.23
2019-02-18T15:54:39.339Z,68.60
2019-02-18T15:57:28.677Z,69.53
2019-02-18T16:00:20.297Z,70.93
2019-02-18T16:03:09.683Z,70.00
2019-02-18T16:05:58.556Z,63.83
2019-02-18T16:08:50.700Z,60.10
2019-02-18T16:11:39.840Z,60.90
2019-02-18T16:14:31.069Z,59.70
2019-02-18T16:17:20.282Z,63.27
2019-02-18T16:20:12.745Z,60.53
2019-02-18T16:23:04.330Z,59.73
2019-02-18T16:25:53.788Z,68.93
2019-02-18T16:28:42.835Z,60.80
2019-02-18T16:31:32.218Z,60.73
2019-02-18T16:34:22.039Z,56.50
2019-02-18T16:37:11.549Z,59.43
2019-02-18T16:40:01.359Z,66.47
2019-02-18T16:42:59.106Z,58.70
2019-02-18T16:45:46.563Z,74.37
2019-02-18T16:48:35.346Z,53.50
2019-02-18T16:51:24.645Z,63.03
2019-02-18T16:54:13.833Z,58.77
2019-02-18T16:57:03.395Z,61.13
2019-02-18T16:59:52.673Z,66.63
2019-02-18T17:02:41.678Z,59.53
2019-02-18T17:05:31.010Z,67.73
2019-02-18T17:08:19.737Z,61.90
2019-02-18T17:11:09.100Z,68.10
2019-02-18T17:13:59.379Z,78.73
2019-02-18T17:16:48.791Z,70.10
2019-02-18T17:19:37.836Z,73.70
2019-02-18T17:22:26.925Z,74.73
2019-02-18T17:25:16.749Z,75.10
2019-02-18T17:28:06.018Z,65.33
2019-02-18T17:30:54.991Z,65.30
2019-02-18T17:33:47.030Z,72.83
2019-02-18T17:36:36.957Z,61.73
2019-02-18T17:39:29.538Z,62.33
2019-02-18T17:42:20.893Z,74.20
2019-02-18T17:45:12.046Z,67.50
2019-02-18T17:48:01.475Z,66.07
2019-02-18T17:50:51.873Z,63.50
2019-02-18T17:53:44.493Z,66.80
2019-02-18T17:56:37.640Z,60.67
2019-02-18T17:59:29.331Z,61.87
2019-02-18T18:02:19.482Z,63.27
2019-02-18T18:05:09.276Z,61.60
2019-02-18T18:08:03.158Z,62.10
2019-02-18T18:10:54.420Z,64.60
2019-02-18T18:13:43.669Z,58.63
2019-02-18T18:16:37.478Z,57.03
2019-02-18T18:19:33.618Z,66.90
2019-02-18T18:22:24.051Z,51.53
2019-02-18T18:25:12.826Z,50.60
2019-02-18T18:28:03.977Z,54.00
2019-02-18T18:30:54.749Z,51.23
2019-02-18T18:33:44.304Z,43.93
2019-02-18T18:36:35.809Z,44.27
2019-02-18T18:39:28.677Z,63.67
2019-02-18T18:42:18.609Z,75.17
2019-02-18T18:45:09.560Z,68.60
2019-02-18T18:48:01.038Z,61.73
2019-02-18T18:50:51.669Z,59.33
2019-02-18T18:53:40.446Z,50.80
2019-02-18T18:56:33.801Z,51.10
2019-02-18T18:59:30.337Z,49.77
2019-02-18T19:02:22.173Z,47.87
2019-02-18T19:05:10.538Z,52.70
2019-02-18T19:08:03.882Z,51.40
2019-02-18T19:10:53.203Z,49.37
2019-02-18T19:13:42.797Z,51.13
2019-02-18T19:16:31.855Z,52.73
2019-02-18T19:19:23.461Z,49.93
2019-02-18T19:22:12.552Z,56.70
2019-02-18T19:25:01.206Z,48.53
2019-02-18T19:27:50.356Z,53.80
2019-02-18T19:30:40.272Z,51.03
2019-02-18T19:33:31.463Z,69.50
2019-02-18T19:36:23.216Z,73.77
2019-02-18T19:39:12.486Z,63.43
2019-02-18T19:42:02.392Z,62.63
2019-02-18T19:44:53.481Z,56.70
2019-02-18T19:47:44.985Z,60.27
2019-02-18T19:50:34.190Z,62.13
2019-02-18T19:53:29.851Z,58.80
2019-02-18T19:56:22.766Z,57.93
2019-02-18T19:59:13.031Z,59.17
2019-02-18T20:02:02.053Z,63.20
2019-02-18T20:04:52.926Z,56.33
2019-02-18T20:07:42.008Z,60.90
2019-02-18T20:10:36.523Z,55.50
2019-02-18T20:13:30.037Z,55.67
2019-02-18T20:16:20.994Z,62.60
2019-02-18T20:19:15.349Z,65.67
2019-02-18T20:22:06.131Z,53.67
2019-02-18T20:24:57.880Z,52.97
2019-02-18T20:27:47.558Z,47.93
2019-02-18T20:30:39.981Z,42.30
2019-02-18T20:33:34.128Z,42.90
2019-02-18T20:36:23.084Z,45.63
2019-02-18T20:39:12.033Z,41.67
2019-02-18T20:42:01.119Z,41.43
2019-02-18T20:44:50.629Z,45.20
2019-02-18T20:47:40.251Z,51.50
2019-02-18T20:50:31.746Z,48.77
2019-02-18T20:53:21.471Z,46.07
2019-02-18T20:56:10.910Z,44.37
2019-02-18T20:59:00.913Z,51.70
2019-02-18T21:01:50.822Z,46.87
2019-02-18T21:04:42.737Z,45.97
2019-02-18T21:07:32.143Z,45.87
2019-02-18T21:10:24.248Z,38.30
2019-02-18T21:13:13.762Z,38.93
2019-02-18T21:16:03.202Z,46.33
2019-02-18T21:18:53.394Z,45.93
2019-02-18T21:21:42.570Z,37.57
2019-02-18T21:24:31.844Z,45.17
2019-02-18T21:27:22.831Z,40.60
2019-02-18T21:30:18.709Z,38.67
2019-02-18T21:33:11.489Z,36.70
2019-02-18T21:36:00.525Z,38.13
2019-02-18T21:38:51.830Z,43.10
2019-02-18T21:41:40.395Z,44.30
2019-02-18T21:44:33.276Z,41.40
2019-02-18T21:47:24.778Z,40.40
2019-02-18T21:50:21.999Z,49.37
2019-02-18T21:53:11.822Z,42.35
2019-02-18T21:56:02.724Z,45.27
2019-02-18T21:58:52.544Z,42.57
2019-02-18T22:01:42.003Z,43.30
2019-02-18T22:04:31.852Z,47.10
2019-02-18T22:07:21.604Z,44.03
2019-02-18T22:10:11.664Z,44.23
2019-02-18T22:13:00.740Z,43.27
2019-02-18T22:15:50.166Z,51.47
2019-02-18T22:18:41.846Z,50.40
2019-02-18T22:21:32.905Z,46.73
2019-02-18T22:24:22.053Z,46.27
2019-02-18T22:27:11.759Z,53.93
2019-02-18T22:30:02.361Z,58.37
2019-02-18T22:32:51.403Z,55.50
2019-02-18T22:35:40.572Z,50.20
2019-02-18T22:38:31.769Z,48.10
2019-02-18T22:41:25.163Z,52.90
2019-02-18T22:44:14.233Z,45.73
2019-02-18T22:47:03.656Z,53.33
2019-02-18T22:49:52.705Z,52.87
2019-02-18T22:52:41.927Z,47.30
2019-02-18T22:55:33.389Z,44.23
2019-02-18T22:58:25.052Z,51.20
2019-02-18T23:01:14.448Z,49.60
2019-02-18T23:04:06.579Z,48.03
2019-02-18T23:06:55.607Z,55.37
2019-02-18T23:09:44.106Z,49.23
2019-02-18T23:12:32.871Z,52.30
2019-02-18T23:15:21.937Z,56.43
2019-02-18T23:18:18.122Z,49.57
2019-02-18T23:21:07.539Z,51.63
2019-02-18T23:23:56.840Z,48.30
2019-02-18T23:26:45.338Z,53.03
2019-02-18T23:29:34.250Z,51.57
2019-02-18T23:32:23.356Z,49.03
2019-02-18T23:35:11.912Z,52.53
2019-02-18T23:38:00.832Z,53.23
2019-02-18T23:40:49.852Z,57.17
2019-02-18T23:43:39.144Z,55.27
2019-02-18T23:46:27.574Z,53.40
2019-02-18T23:49:17.166Z,56.10
2019-02-18T23:52:05.801Z,55.03
2019-02-18T23:54:55.252Z,52.73
2019-02-18T23:57:43.850Z,55.20
